KTOI/TOI METAR and TAF weather

Enter ICAO airport designator
Station Type Date Time Source
KTOI METAR 2020/02/25 00:11 UTC NOAA

KTOI 250011Z AUTO 00000KT 5SM RA BR BKN006 OVC011 17/17 A2984 RMK AO2 P0002 T01670167


Station Type Date Time Source
KTOI Decoded METAR 2020/02/25 00:11 UTC NOAA

TROY MUNICIPAL AIRPORT, AL, United States (KTOI) 31-52N 086-01W 118M
Feb 24, 2020 - 07:11 PM EST / 2020.02.25 0011 UTC
Wind: Calm:0
Visibility: 5 mile(s):0
Sky conditions: overcast
Weather: rain; mist
Precipitation last hour: 0.02 inches
Temperature: 62.1 F (16.7 C)
Dew Point: 62.1 F (16.7 C)
Relative Humidity: 100%
Pressure (altimeter): 29.84 in. Hg (1010 hPa)
ob: KTOI 250011Z AUTO 00000KT 5SM RA BR BKN006 OVC011 17/17 A2984 RMK AO2 P0002 T01670167
cycle: 0

Station Type Date Time Source
KTOI TAF 2020/02/24 22:51 UTC NOAA

TAF
AMD KTOI 242148Z 2422/2518 17007KT 6SM -SHRA OVC020
FM250000 18007KT 4SM -SHRA BR OVC008
FM250800 21005KT P6SM VCSH OVC005
FM251500 27005KT P6SM OVC015

Example: see airport list